createdAt,value
2022-12-03T00:00:40.804Z,102519.81
2022-12-03T00:03:07.619Z,102608.41
2022-12-03T00:05:34.498Z,102644.41
2022-12-03T00:08:03.036Z,102555.13
2022-12-03T00:10:29.816Z,102511.25
2022-12-03T00:12:56.497Z,102562.34
2022-12-03T00:15:23.231Z,102648.16
2022-12-03T00:17:49.950Z,102642.03
2022-12-03T00:20:19.993Z,102493.00
2022-12-03T00:22:46.733Z,102673.75
2022-12-03T00:25:16.129Z,102632.44
2022-12-03T00:27:43.051Z,102628.44
2022-12-03T00:30:14.193Z,102539.84
2022-12-03T00:32:41.558Z,102625.56
2022-12-03T00:35:09.087Z,102607.53
2022-12-03T00:37:35.943Z,102646.06
2022-12-03T00:40:04.823Z,102630.59
2022-12-03T00:42:31.574Z,102543.22
2022-12-03T00:44:58.369Z,102629.78
2022-12-03T00:47:25.143Z,102562.63
2022-12-03T00:49:51.841Z,102629.81
2022-12-03T00:52:18.525Z,102635.84
2022-12-03T00:54:45.405Z,102555.59
2022-12-03T00:57:12.169Z,102568.13
2022-12-03T00:59:40.737Z,102313.84
2022-12-03T01:02:07.480Z,102495.25
2022-12-03T01:04:34.228Z,102565.00
2022-12-03T01:07:01.120Z,102616.59
2022-12-03T01:09:27.861Z,102620.66
2022-12-03T01:11:54.547Z,102590.34
2022-12-03T01:14:21.201Z,102615.13
2022-12-03T01:16:48.216Z,102647.59
2022-12-03T01:19:16.465Z,102525.28
2022-12-03T01:21:44.901Z,102611.09
2022-12-03T01:24:12.300Z,102607.66
2022-12-03T01:26:39.180Z,102623.28
2022-12-03T01:29:06.290Z,102621.22
2022-12-03T01:31:51.579Z,102616.97
2022-12-03T01:34:18.405Z,102574.75
2022-12-03T01:36:45.086Z,102612.00
2022-12-03T01:39:11.857Z,102617.00
2022-12-03T01:41:39.186Z,102569.53
2022-12-03T01:44:18.229Z,102476.66
2022-12-03T01:46:46.643Z,102551.09
2022-12-03T01:49:20.442Z,102595.75
2022-12-03T01:51:49.096Z,102618.78
2022-12-03T01:54:22.282Z,102636.78
2022-12-03T01:56:49.254Z,102432.22
2022-12-03T01:59:21.822Z,102608.38
2022-12-03T02:01:49.279Z,102611.81
2022-12-03T02:04:17.199Z,102585.56
2022-12-03T02:06:44.857Z,102635.94
2022-12-03T02:09:13.483Z,102612.03
2022-12-03T02:11:47.044Z,102612.78
2022-12-03T02:14:18.253Z,102615.34
2022-12-03T02:16:45.976Z,102615.94
2022-12-03T02:19:24.788Z,102584.78
2022-12-03T02:22:15.317Z,102625.91
2022-12-03T02:25:11.138Z,102380.47
2022-12-03T02:27:38.273Z,102459.66
2022-12-03T02:30:06.873Z,102614.66
2022-12-03T02:32:33.697Z,102544.97
2022-12-03T02:35:00.376Z,102490.34
2022-12-03T02:37:30.989Z,102421.53
2022-12-03T02:40:01.498Z,102569.00
2022-12-03T02:42:35.636Z,102597.25
2022-12-03T02:45:05.904Z,102613.31
2022-12-03T02:47:36.502Z,102484.03
2022-12-03T02:50:03.978Z,102605.59
2022-12-03T02:52:31.034Z,102609.81
2022-12-03T02:54:58.347Z,102438.53
2022-12-03T02:57:25.050Z,102568.34
2022-12-03T02:59:52.040Z,102529.19
2022-12-03T03:02:19.194Z,102569.16
2022-12-03T03:04:46.199Z,102530.09
2022-12-03T03:07:13.972Z,102603.31
2022-12-03T03:09:41.602Z,102606.31
2022-12-03T03:12:10.084Z,102477.06
2022-12-03T03:14:37.045Z,102475.19
2022-12-03T03:17:04.501Z,102441.78
2022-12-03T03:19:31.190Z,102458.66
2022-12-03T03:21:58.134Z,102534.97
2022-12-03T03:24:25.780Z,102597.31
2022-12-03T03:26:53.032Z,102544.66
2022-12-03T03:29:20.030Z,102481.63
2022-12-03T03:31:47.460Z,102447.75
2022-12-03T03:34:15.262Z,102530.06
2022-12-03T03:36:42.370Z,102588.78
2022-12-03T03:39:09.228Z,102585.16
2022-12-03T03:41:36.650Z,102584.47
2022-12-03T03:44:06.408Z,102590.34
2022-12-03T03:46:34.071Z,102580.13
2022-12-03T03:49:02.382Z,102474.00
2022-12-03T03:51:29.485Z,102471.28
2022-12-03T03:53:56.560Z,102574.09
2022-12-03T03:56:23.377Z,102480.38
2022-12-03T03:58:50.105Z,102577.94
2022-12-03T04:01:17.445Z,102577.97
2022-12-03T04:03:45.118Z,102578.88
2022-12-03T04:06:11.971Z,102580.16
2022-12-03T04:08:38.685Z,102526.66
2022-12-03T04:11:26.702Z,102513.06
2022-12-03T04:13:53.429Z,102574.91
2022-12-03T04:16:20.138Z,102331.06
2022-12-03T04:18:47.043Z,102569.22
2022-12-03T04:21:42.721Z,102562.94
2022-12-03T04:24:11.251Z,102572.25
2022-12-03T04:26:56.990Z,102521.84
2022-12-03T04:29:23.917Z,102485.19
2022-12-03T04:32:16.887Z,102586.69
2022-12-03T04:35:02.141Z,102566.97
2022-12-03T04:37:28.809Z,102523.34
2022-12-03T04:39:55.534Z,102560.38
2022-12-03T04:42:22.322Z,102476.22
2022-12-03T04:44:48.952Z,102566.31
2022-12-03T04:47:20.972Z,102582.25
2022-12-03T04:49:49.835Z,102567.56
2022-12-03T04:52:18.239Z,102545.34
2022-12-03T04:54:45.508Z,102496.91
2022-12-03T04:57:12.473Z,102565.97
2022-12-03T04:59:39.701Z,102560.22
2022-12-03T05:02:07.095Z,102563.03
2022-12-03T05:04:34.177Z,102508.78
2022-12-03T05:07:00.965Z,102472.47
2022-12-03T05:09:27.734Z,102571.31
2022-12-03T05:11:54.450Z,102459.13
2022-12-03T05:14:21.142Z,102563.75
2022-12-03T05:16:47.867Z,102450.81
2022-12-03T05:19:14.560Z,102561.16
2022-12-03T05:21:41.199Z,102557.75
2022-12-03T05:24:08.082Z,102515.16
2022-12-03T05:26:34.798Z,102529.50
2022-12-03T05:29:01.538Z,102558.19
2022-12-03T05:31:28.276Z,102558.91
2022-12-03T05:33:55.309Z,102455.22
2022-12-03T05:36:22.073Z,102459.25
2022-12-03T05:38:48.850Z,102487.38
2022-12-03T05:41:34.059Z,102446.66
2022-12-03T05:44:00.782Z,102544.09
2022-12-03T05:46:27.649Z,102483.88
2022-12-03T05:48:55.093Z,102222.56
2022-12-03T05:51:21.754Z,102540.84
2022-12-03T05:53:48.499Z,102536.47
2022-12-03T05:56:15.175Z,102328.06
2022-12-03T05:58:41.910Z,102493.13
2022-12-03T06:01:08.618Z,102540.94
2022-12-03T06:03:35.515Z,102423.09
2022-12-03T06:06:02.304Z,102536.88
2022-12-03T06:08:29.096Z,102540.25
2022-12-03T06:10:55.768Z,102460.44
2022-12-03T06:13:22.466Z,102449.34
2022-12-03T06:15:49.144Z,102517.34
2022-12-03T06:18:15.952Z,102401.53
2022-12-03T06:20:42.566Z,102486.78
2022-12-03T06:23:09.258Z,102502.25
2022-12-03T06:25:35.966Z,102542.66
2022-12-03T06:28:02.651Z,102498.25
2022-12-03T06:30:29.375Z,102539.72
2022-12-03T06:32:57.773Z,102523.16
2022-12-03T06:35:24.444Z,102544.97
2022-12-03T06:37:51.153Z,102392.72
2022-12-03T06:40:18.013Z,102340.75
2022-12-03T06:42:44.796Z,102433.56
2022-12-03T06:45:12.038Z,102173.28
2022-12-03T06:47:38.850Z,102530.16
2022-12-03T06:50:07.553Z,102533.91
2022-12-03T06:52:35.238Z,102395.22
2022-12-03T06:55:01.889Z,102528.84
2022-12-03T06:57:28.569Z,102428.34
2022-12-03T06:59:55.683Z,102535.81
2022-12-03T07:02:22.563Z,102424.31
2022-12-03T07:04:49.226Z,102538.94
2022-12-03T07:07:15.896Z,102407.09
2022-12-03T07:09:42.541Z,102533.75
2022-12-03T07:12:09.292Z,102427.50
2022-12-03T07:14:35.968Z,102539.84
2022-12-03T07:17:02.728Z,102494.69
2022-12-03T07:19:32.792Z,102416.69
2022-12-03T07:22:00.231Z,102544.19
2022-12-03T07:24:27.275Z,102542.47
2022-12-03T07:26:54.021Z,102471.03
2022-12-03T07:29:20.768Z,102557.94
2022-12-03T07:31:48.236Z,102545.97
2022-12-03T07:34:15.352Z,102436.03
2022-12-03T07:36:45.173Z,102531.25
2022-12-03T07:39:21.248Z,102255.66
2022-12-03T07:41:48.008Z,102348.63
2022-12-03T07:44:15.019Z,102453.69
2022-12-03T07:46:42.457Z,102522.53
2022-12-03T07:49:09.732Z,102447.44
2022-12-03T07:51:36.470Z,102527.03
2022-12-03T07:54:03.234Z,102528.72
2022-12-03T07:56:30.188Z,102496.50
2022-12-03T07:58:56.916Z,102441.81
2022-12-03T08:01:23.717Z,102497.81
2022-12-03T08:03:50.505Z,102526.78
2022-12-03T08:06:17.223Z,102446.19
2022-12-03T08:08:43.972Z,102533.81
2022-12-03T08:11:15.022Z,102505.66
2022-12-03T08:13:41.716Z,102108.59
2022-12-03T08:16:17.796Z,102527.00
2022-12-03T08:18:45.918Z,102510.88
2022-12-03T08:21:14.793Z,102395.97
2022-12-03T08:23:41.681Z,102518.53
2022-12-03T08:26:20.194Z,102521.25
2022-12-03T08:28:46.935Z,102333.34
2022-12-03T08:31:25.766Z,102389.41
2022-12-03T08:34:22.440Z,102519.28
2022-12-03T08:36:58.791Z,102400.03
2022-12-03T08:39:29.509Z,102511.72
2022-12-03T08:42:31.461Z,102503.78
2022-12-03T08:45:27.932Z,102506.44
2022-12-03T08:48:00.116Z,102432.34
2022-12-03T08:50:38.600Z,102494.41
2022-12-03T08:53:14.155Z,102512.31
2022-12-03T08:56:06.180Z,102509.28
2022-12-03T08:58:46.881Z,102510.00
2022-12-03T09:01:13.689Z,102514.13
2022-12-03T09:03:52.677Z,102412.97
2022-12-03T09:06:19.479Z,102423.34
2022-12-03T09:08:46.160Z,102450.63
2022-12-03T09:11:13.670Z,102342.50
2022-12-03T09:13:40.423Z,102491.38
2022-12-03T09:16:07.557Z,102303.09
2022-12-03T09:18:34.423Z,102465.50
2022-12-03T09:21:01.408Z,102354.38
2022-12-03T09:23:28.247Z,102499.91
2022-12-03T09:25:55.158Z,102382.63
2022-12-03T09:28:22.209Z,102496.56
2022-12-03T09:30:48.987Z,102361.13
2022-12-03T09:33:15.679Z,102499.00
2022-12-03T09:35:42.369Z,102388.28
2022-12-03T09:38:09.007Z,102449.00
2022-12-03T09:40:35.725Z,102346.06
2022-12-03T09:43:03.518Z,102496.31
2022-12-03T09:45:30.250Z,102362.78
2022-12-03T09:47:57.327Z,102425.00
2022-12-03T09:50:26.781Z,102485.28
2022-12-03T09:52:55.123Z,102496.41
2022-12-03T09:55:25.457Z,102487.06
2022-12-03T09:57:56.968Z,102492.03
2022-12-03T10:00:27.051Z,102489.28
2022-12-03T10:02:57.458Z,102349.75
2022-12-03T10:05:24.938Z,102458.00
2022-12-03T10:07:52.788Z,102489.41
2022-12-03T10:10:25.172Z,102476.63
2022-12-03T10:12:53.015Z,102485.34
2022-12-03T10:15:22.790Z,102478.53
2022-12-03T10:17:52.185Z,102482.03
2022-12-03T10:20:24.501Z,102305.81
2022-12-03T10:22:53.536Z,102294.72
2022-12-03T10:25:23.487Z,102469.06
2022-12-03T10:28:02.146Z,102276.78
2022-12-03T10:30:31.580Z,102351.59
2022-12-03T10:33:02.538Z,102430.50
2022-12-03T10:35:45.762Z,102224.16
2022-12-03T10:38:27.831Z,102458.63
2022-12-03T10:41:00.003Z,102428.97
2022-12-03T10:43:29.828Z,102332.00
2022-12-03T10:46:03.483Z,102457.91
2022-12-03T10:48:32.894Z,102448.69
2022-12-03T10:51:33.656Z,102459.41
2022-12-03T10:54:04.969Z,102414.84
2022-12-03T10:56:31.767Z,102437.72
2022-12-03T10:58:58.529Z,102390.59
2022-12-03T11:01:26.585Z,102384.88
2022-12-03T11:04:04.684Z,102450.75
2022-12-03T11:06:34.695Z,102370.81
2022-12-03T11:09:08.859Z,102113.03
2022-12-03T11:11:36.228Z,102337.47
2022-12-03T11:14:04.931Z,102395.38
2022-12-03T11:16:40.466Z,102451.38
2022-12-03T11:19:13.317Z,102442.63
2022-12-03T11:22:05.108Z,102445.22
2022-12-03T11:24:36.878Z,102443.41
2022-12-03T11:27:03.587Z,102439.19
2022-12-03T11:29:52.526Z,102433.28
2022-12-03T11:32:54.490Z,102433.44
2022-12-03T11:35:24.019Z,102441.34
2022-12-03T11:37:51.102Z,102396.31
2022-12-03T11:40:17.744Z,102444.84
2022-12-03T11:42:46.737Z,102247.47
2022-12-03T11:45:28.737Z,102430.03
2022-12-03T11:47:58.495Z,102433.53
2022-12-03T11:50:38.978Z,102424.06
2022-12-03T11:53:21.367Z,102296.97
2022-12-03T11:56:04.131Z,102420.63
2022-12-03T11:58:32.905Z,102424.78
2022-12-03T12:01:03.332Z,102421.53
2022-12-03T12:03:57.544Z,102372.19
2022-12-03T12:06:24.350Z,102352.31
2022-12-03T12:08:50.965Z,102413.78
2022-12-03T12:11:30.360Z,102340.56
2022-12-03T12:14:08.426Z,102322.13
2022-12-03T12:16:46.243Z,102398.75
2022-12-03T12:19:28.154Z,102412.22
2022-12-03T12:21:55.737Z,102335.88
2022-12-03T12:24:32.799Z,102415.38
2022-12-03T12:27:11.697Z,102410.13
2022-12-03T12:29:40.340Z,102252.19
2022-12-03T12:32:10.193Z,102409.50
2022-12-03T12:34:41.637Z,102277.81
2022-12-03T12:37:13.364Z,102410.41
2022-12-03T12:39:40.240Z,102284.63
2022-12-03T12:42:27.354Z,102403.22
2022-12-03T12:44:58.231Z,102160.06
2022-12-03T12:47:25.171Z,102397.72
2022-12-03T12:49:52.114Z,102164.06
2022-12-03T12:52:18.980Z,102390.13
2022-12-03T12:54:45.631Z,102334.03
2022-12-03T12:57:16.086Z,102391.00
2022-12-03T12:59:42.860Z,102268.44
2022-12-03T13:02:41.051Z,102204.09
2022-12-03T13:05:11.744Z,102383.16
2022-12-03T13:07:40.042Z,102361.78
2022-12-03T13:10:34.812Z,102389.88
2022-12-03T13:13:20.532Z,102239.38
2022-12-03T13:15:52.075Z,102323.13
2022-12-03T13:18:37.026Z,102386.53
2022-12-03T13:21:22.332Z,102249.75
2022-12-03T13:23:57.198Z,102345.84
2022-12-03T13:26:34.482Z,102374.53
2022-12-03T13:29:18.029Z,102265.06
2022-12-03T13:32:03.001Z,102244.47
2022-12-03T13:34:34.746Z,102383.41
2022-12-03T13:37:02.068Z,102314.25
2022-12-03T13:39:35.381Z,102299.31
2022-12-03T13:42:26.730Z,102374.56
2022-12-03T13:44:53.502Z,102321.22
2022-12-03T13:47:22.172Z,102197.28
2022-12-03T13:50:03.757Z,102322.97
2022-12-03T13:52:32.733Z,102384.13
2022-12-03T13:55:03.436Z,102157.31
2022-12-03T13:57:30.200Z,102261.81
2022-12-03T13:59:57.165Z,102267.03
2022-12-03T14:02:24.298Z,102309.81
2022-12-03T14:04:56.809Z,102385.25
2022-12-03T14:07:26.874Z,102190.56
2022-12-03T14:09:53.945Z,102300.63
2022-12-03T14:12:26.598Z,102345.94
2022-12-03T14:14:54.153Z,102218.25
2022-12-03T14:17:20.940Z,102314.94
2022-12-03T14:19:47.779Z,102278.91
2022-12-03T14:22:14.480Z,102362.09
2022-12-03T14:24:41.445Z,102367.13
2022-12-03T14:27:08.104Z,102384.88
2022-12-03T14:29:34.854Z,102245.44
2022-12-03T14:32:01.819Z,102175.56
2022-12-03T14:34:28.678Z,102366.91
2022-12-03T14:36:55.385Z,102337.13
2022-12-03T14:39:22.125Z,102373.59
2022-12-03T14:42:07.624Z,102220.09
2022-12-03T14:44:34.459Z,102277.03
2022-12-03T14:47:01.208Z,102288.09
2022-12-03T14:49:28.142Z,101806.53
2022-12-03T14:51:55.036Z,102326.47
2022-12-03T14:54:22.283Z,102307.09
2022-12-03T14:56:49.027Z,102365.88
2022-12-03T14:59:15.798Z,102211.06
2022-12-03T15:01:42.918Z,102350.56
2022-12-03T15:04:09.800Z,102170.22
2022-12-03T15:06:36.561Z,102184.84
2022-12-03T15:09:05.168Z,102203.38
2022-12-03T15:11:32.335Z,102205.03
2022-12-03T15:13:59.263Z,102194.06
2022-12-03T15:16:27.984Z,102321.63
2022-12-03T15:18:55.027Z,102203.63
2022-12-03T15:21:21.767Z,102153.47
2022-12-03T15:23:49.199Z,102257.09
2022-12-03T15:26:15.924Z,102355.56
2022-12-03T15:28:47.931Z,102242.56
2022-12-03T15:31:15.305Z,102348.06
2022-12-03T15:33:42.261Z,102345.41
2022-12-03T15:36:09.719Z,102407.84
2022-12-03T15:38:36.963Z,102362.53
2022-12-03T15:41:21.156Z,102186.47
2022-12-03T15:43:53.017Z,102179.63
2022-12-03T15:46:20.766Z,102241.53
2022-12-03T15:48:48.481Z,102363.88
2022-12-03T15:51:15.432Z,102363.88
2022-12-03T15:53:42.508Z,102376.84
2022-12-03T15:56:09.539Z,102270.56
2022-12-03T15:58:36.226Z,102293.59
2022-12-03T16:01:03.031Z,102356.97
2022-12-03T16:03:29.847Z,102208.06
2022-12-03T16:05:56.737Z,102343.72
2022-12-03T16:08:25.863Z,102265.06
2022-12-03T16:10:53.173Z,102207.44
2022-12-03T16:13:22.380Z,102073.88
2022-12-03T16:15:49.551Z,102348.22
2022-12-03T16:18:16.493Z,102179.19
2022-12-03T16:20:43.832Z,102351.84
2022-12-03T16:23:15.126Z,102215.22
2022-12-03T16:25:41.997Z,102223.28
2022-12-03T16:28:09.051Z,102293.91
2022-12-03T16:30:36.470Z,102357.69
2022-12-03T16:33:03.212Z,102262.56
2022-12-03T16:35:33.995Z,102303.13
2022-12-03T16:38:00.824Z,102331.94
2022-12-03T16:40:27.493Z,102236.09
2022-12-03T16:42:56.385Z,102355.16
2022-12-03T16:46:00.986Z,102203.28
2022-12-03T16:48:30.245Z,102319.78
2022-12-03T16:50:57.037Z,102254.31
2022-12-03T16:53:23.768Z,102356.78
2022-12-03T16:55:50.508Z,102053.34
2022-12-03T16:58:21.174Z,102357.53
2022-12-03T17:00:49.049Z,102335.50
2022-12-03T17:03:17.865Z,102292.00
2022-12-03T17:05:45.393Z,102349.09
2022-12-03T17:08:13.096Z,102304.25
2022-12-03T17:10:40.111Z,102292.69
2022-12-03T17:13:09.816Z,102251.19
2022-12-03T17:15:37.275Z,102193.97
2022-12-03T17:18:04.307Z,102309.13
2022-12-03T17:20:31.859Z,102357.59
2022-12-03T17:22:59.650Z,102237.56
2022-12-03T17:25:27.452Z,102201.94
2022-12-03T17:27:54.580Z,102355.19
2022-12-03T17:30:21.688Z,102232.19
2022-12-03T17:32:50.411Z,102273.81
2022-12-03T17:35:18.379Z,102240.03
2022-12-03T17:37:45.400Z,102341.66
2022-12-03T17:40:13.883Z,102203.19
2022-12-03T17:42:40.895Z,102347.72
2022-12-03T17:45:08.213Z,102302.53
2022-12-03T17:47:34.860Z,102243.06
2022-12-03T17:50:01.784Z,102243.19
2022-12-03T17:52:28.455Z,102211.91
2022-12-03T17:55:10.833Z,102272.13
2022-12-03T17:57:39.185Z,102078.53
2022-12-03T18:00:06.815Z,102299.22
2022-12-03T18:02:39.316Z,102217.78
2022-12-03T18:05:06.249Z,102350.47
2022-12-03T18:07:33.194Z,102361.78
2022-12-03T18:09:59.977Z,102204.59
2022-12-03T18:12:26.777Z,102310.94
2022-12-03T18:14:53.551Z,102260.38
2022-12-03T18:17:20.322Z,102215.38
2022-12-03T18:19:47.223Z,102213.41
2022-12-03T18:22:14.306Z,102212.84
2022-12-03T18:24:41.148Z,102199.09
2022-12-03T18:27:11.300Z,102187.25
2022-12-03T18:29:42.608Z,102355.41
2022-12-03T18:32:27.161Z,102355.47
2022-12-03T18:34:55.298Z,102270.38
2022-12-03T18:37:25.557Z,102270.66
2022-12-03T18:39:52.573Z,102307.31
2022-12-03T18:42:21.552Z,102127.13
2022-12-03T18:44:50.794Z,102344.06
2022-12-03T18:47:20.389Z,102364.44
2022-12-03T18:49:47.543Z,102155.59
2022-12-03T18:52:16.584Z,102292.38
2022-12-03T18:54:43.690Z,102357.44
2022-12-03T18:57:10.505Z,102264.75
2022-12-03T18:59:38.194Z,102382.13
2022-12-03T19:02:05.777Z,102224.91
2022-12-03T19:04:35.677Z,102231.91
2022-12-03T19:07:03.752Z,102358.16
2022-12-03T19:09:30.688Z,102297.03
2022-12-03T19:11:57.704Z,102231.63
2022-12-03T19:14:24.440Z,102364.31
2022-12-03T19:16:52.069Z,102261.63
2022-12-03T19:19:19.098Z,102150.00
2022-12-03T19:21:45.757Z,102374.66
2022-12-03T19:24:28.041Z,102246.28
2022-12-03T19:26:55.529Z,102367.75
2022-12-03T19:29:23.299Z,102246.34
2022-12-03T19:31:51.219Z,102375.63
2022-12-03T19:34:18.159Z,102339.31
2022-12-03T19:36:45.205Z,102385.22
2022-12-03T19:39:11.935Z,102102.06
2022-12-03T19:41:39.380Z,102410.94
2022-12-03T19:44:10.738Z,102194.56
2022-12-03T19:46:37.832Z,102378.03
2022-12-03T19:49:04.887Z,102306.75
2022-12-03T19:51:35.163Z,102272.75
2022-12-03T19:54:04.731Z,102089.88
2022-12-03T19:56:31.541Z,102269.38
2022-12-03T19:58:58.435Z,102072.19
2022-12-03T20:01:28.293Z,102313.63
2022-12-03T20:03:57.315Z,102388.28
2022-12-03T20:06:27.847Z,102337.13
2022-12-03T20:09:04.743Z,102344.16
2022-12-03T20:11:33.087Z,102069.97
2022-12-03T20:14:02.843Z,102360.44
2022-12-03T20:16:30.019Z,102379.03
2022-12-03T20:18:59.404Z,102107.81
2022-12-03T20:21:28.473Z,102305.22
2022-12-03T20:23:55.237Z,102287.22
2022-12-03T20:26:23.041Z,102341.78
2022-12-03T20:28:50.260Z,102224.53
2022-12-03T20:31:19.794Z,102251.44
2022-12-03T20:33:49.836Z,102066.38
2022-12-03T20:36:19.109Z,102122.22
2022-12-03T20:38:45.956Z,102228.66
2022-12-03T20:41:18.772Z,102291.09
2022-12-03T20:43:45.761Z,102233.97
2022-12-03T20:46:18.653Z,102151.63
2022-12-03T20:48:45.806Z,102277.53
2022-12-03T20:51:15.564Z,102325.53
2022-12-03T20:53:42.973Z,102317.03
2022-12-03T20:56:10.270Z,102330.41
2022-12-03T20:58:37.115Z,102383.56
2022-12-03T21:01:15.324Z,102375.75
2022-12-03T21:03:43.504Z,102294.75
2022-12-03T21:06:11.552Z,102335.13
2022-12-03T21:08:42.166Z,102157.28
2022-12-03T21:11:15.298Z,102334.63
2022-12-03T21:13:43.950Z,102373.63
2022-12-03T21:16:16.844Z,102384.09
2022-12-03T21:18:44.533Z,102382.41
2022-12-03T21:21:12.955Z,102374.56
2022-12-03T21:23:41.065Z,102373.50
2022-12-03T21:26:10.880Z,102371.16
2022-12-03T21:28:39.706Z,102324.28
2022-12-03T21:31:10.151Z,102250.16
2022-12-03T21:33:37.508Z,102279.34
2022-12-03T21:36:05.456Z,102371.69
2022-12-03T21:38:33.313Z,102029.34
2022-12-03T21:41:01.214Z,102374.34
2022-12-03T21:43:30.096Z,102367.47
2022-12-03T21:45:56.868Z,102214.41
2022-12-03T21:48:23.757Z,102373.44
2022-12-03T21:51:01.588Z,102182.09
2022-12-03T21:53:28.578Z,102287.22
2022-12-03T21:55:55.518Z,102088.47
2022-12-03T21:58:22.211Z,102262.16
2022-12-03T22:00:48.880Z,102130.28
2022-12-03T22:03:15.739Z,102378.19
2022-12-03T22:05:42.729Z,102368.78
2022-12-03T22:08:09.753Z,102278.69
2022-12-03T22:10:36.898Z,102220.28
2022-12-03T22:13:03.667Z,102381.50
2022-12-03T22:15:30.474Z,102200.81
2022-12-03T22:17:57.147Z,102259.81
2022-12-03T22:20:23.829Z,102375.94
2022-12-03T22:22:50.638Z,102326.50
2022-12-03T22:25:17.400Z,102380.13
2022-12-03T22:27:44.067Z,102133.53
2022-12-03T22:30:10.977Z,102386.00
2022-12-03T22:32:37.754Z,102386.78
2022-12-03T22:35:04.853Z,102340.41
2022-12-03T22:37:32.767Z,102223.91
2022-12-03T22:39:59.597Z,102312.19
2022-12-03T22:42:26.334Z,102140.69
2022-12-03T22:44:53.050Z,102345.41
2022-12-03T22:47:19.923Z,102107.16
2022-12-03T22:49:46.610Z,102182.53
2022-12-03T22:52:13.413Z,102359.97
2022-12-03T22:54:40.072Z,102147.31
2022-12-03T22:57:06.911Z,102379.34
2022-12-03T22:59:33.590Z,102233.03
2022-12-03T23:02:01.255Z,102276.59
2022-12-03T23:04:27.976Z,102311.94
2022-12-03T23:06:54.882Z,102107.25
2022-12-03T23:09:21.638Z,101956.66
2022-12-03T23:11:48.631Z,102243.28
2022-12-03T23:14:15.337Z,102259.44
2022-12-03T23:16:42.109Z,102038.66
2022-12-03T23:19:08.838Z,102333.03
2022-12-03T23:21:35.799Z,101937.00
2022-12-03T23:24:05.310Z,102366.59
2022-12-03T23:26:35.876Z,102233.38
2022-12-03T23:29:05.173Z,102319.22
2022-12-03T23:31:33.312Z,102367.78
2022-12-03T23:34:00.671Z,102321.53
2022-12-03T23:36:30.224Z,102278.72
2022-12-03T23:38:57.169Z,102333.66
2022-12-03T23:41:24.889Z,102283.41
2022-12-03T23:43:51.863Z,101957.63
2022-12-03T23:46:22.111Z,102417.75
2022-12-03T23:48:49.514Z,102304.81
2022-12-03T23:51:19.188Z,102358.16
2022-12-03T23:53:46.134Z,102272.84
2022-12-03T23:56:15.702Z,102186.88
2022-12-03T23:58:43.186Z,102373.28
